createdAt,value
2023-01-15T00:00:21.871Z,27.80
2023-01-15T00:02:48.356Z,28.67
2023-01-15T00:05:14.977Z,28.50
2023-01-15T00:07:41.420Z,27.80
2023-01-15T00:10:08.787Z,26.90
2023-01-15T00:12:35.219Z,26.40
2023-01-15T00:15:01.621Z,27.10
2023-01-15T00:17:28.079Z,26.85
2023-01-15T00:19:54.595Z,27.67
2023-01-15T00:22:20.998Z,26.77
2023-01-15T00:25:05.909Z,27.50
2023-01-15T00:27:41.711Z,25.98
2023-01-15T00:30:11.705Z,29.27
2023-01-15T00:32:39.040Z,25.67
2023-01-15T00:35:06.308Z,24.67
2023-01-15T00:37:32.739Z,24.77
2023-01-15T00:39:59.208Z,24.60
2023-01-15T00:42:25.661Z,24.05
2023-01-15T00:44:52.150Z,23.92
2023-01-15T00:47:18.636Z,22.77
2023-01-15T00:49:45.258Z,26.08
2023-01-15T00:52:12.296Z,21.67
2023-01-15T00:54:38.733Z,24.05
2023-01-15T00:57:05.232Z,19.95
2023-01-15T00:59:31.675Z,20.98
2023-01-15T01:01:58.356Z,21.08
2023-01-15T01:04:24.862Z,21.63
2023-01-15T01:06:51.290Z,20.50
2023-01-15T01:09:17.775Z,21.27
2023-01-15T01:11:44.232Z,20.27
2023-01-15T01:14:12.318Z,20.42
2023-01-15T01:16:40.455Z,19.85
2023-01-15T01:19:09.912Z,19.00
2023-01-15T01:21:40.970Z,17.75
2023-01-15T01:24:08.257Z,16.58
2023-01-15T01:26:35.183Z,16.75
2023-01-15T01:29:01.896Z,17.10
2023-01-15T01:31:28.406Z,19.02
2023-01-15T01:33:56.619Z,18.58
2023-01-15T01:36:32.136Z,18.30
2023-01-15T01:38:59.629Z,14.43
2023-01-15T01:41:27.168Z,15.10
2023-01-15T01:44:01.423Z,18.33
2023-01-15T01:46:30.693Z,16.27
2023-01-15T01:49:02.098Z,13.73
2023-01-15T01:51:34.482Z,13.85
2023-01-15T01:54:02.243Z,17.35
2023-01-15T01:56:30.720Z,13.60
2023-01-15T01:58:57.214Z,15.68
2023-01-15T02:01:25.337Z,13.88
2023-01-15T02:03:53.343Z,12.63
2023-01-15T02:06:20.319Z,16.23
2023-01-15T02:08:46.728Z,12.52
2023-01-15T02:11:17.394Z,22.92
2023-01-15T02:13:53.138Z,16.77
2023-01-15T02:16:56.847Z,13.50
2023-01-15T02:19:41.391Z,14.20
2023-01-15T02:22:49.254Z,19.45
2023-01-15T02:25:39.618Z,15.40
2023-01-15T02:28:26.204Z,16.02
2023-01-15T02:31:06.852Z,14.27
2023-01-15T02:33:44.003Z,19.33
2023-01-15T02:36:15.083Z,17.60
2023-01-15T02:38:48.594Z,16.00
2023-01-15T02:41:18.441Z,12.27
2023-01-15T02:43:48.634Z,16.92
2023-01-15T02:48:46.394Z,19.85
2023-01-15T02:51:21.777Z,27.15
2023-01-15T02:53:51.209Z,11.60
2023-01-15T02:56:22.334Z,12.05
2023-01-15T02:58:53.786Z,14.52
2023-01-15T03:01:28.113Z,19.48
2023-01-15T03:04:10.275Z,16.83
2023-01-15T03:06:51.551Z,16.42
2023-01-15T03:09:18.793Z,19.90
2023-01-15T03:12:04.078Z,16.65
2023-01-15T03:14:38.509Z,13.95
2023-01-15T03:17:19.850Z,16.13
2023-01-15T03:20:11.904Z,17.90
2023-01-15T03:22:43.821Z,13.35
2023-01-15T03:25:19.035Z,17.05
2023-01-15T03:27:45.718Z,15.25
2023-01-15T03:30:15.827Z,14.57
2023-01-15T03:32:42.475Z,16.20
2023-01-15T03:35:49.672Z,18.10
2023-01-15T03:38:19.612Z,18.38
2023-01-15T03:41:30.896Z,21.52
2023-01-15T03:44:22.157Z,21.88
2023-01-15T03:46:54.352Z,16.02
2023-01-15T03:49:34.761Z,18.75
2023-01-15T03:52:20.095Z,24.13
2023-01-15T03:55:10.067Z,14.73
2023-01-15T03:57:48.426Z,17.65
2023-01-15T04:00:17.940Z,22.63
2023-01-15T04:02:46.969Z,18.25
2023-01-15T04:05:15.710Z,19.40
2023-01-15T04:07:42.464Z,23.33
2023-01-15T04:10:10.318Z,23.58
2023-01-15T04:12:36.833Z,24.05
2023-01-15T04:15:03.864Z,18.17
2023-01-15T04:17:30.504Z,20.42
2023-01-15T04:19:56.956Z,20.55
2023-01-15T04:22:23.385Z,26.52
2023-01-15T04:24:49.838Z,26.48
2023-01-15T04:27:16.270Z,24.27
2023-01-15T04:29:42.692Z,24.70
2023-01-15T04:32:09.131Z,18.55
2023-01-15T04:34:36.209Z,25.35
2023-01-15T04:37:02.715Z,23.52
2023-01-15T04:39:29.149Z,21.70
2023-01-15T04:42:14.062Z,22.33
2023-01-15T04:44:40.615Z,22.52
2023-01-15T04:47:07.084Z,21.13
2023-01-15T04:49:34.373Z,27.83
2023-01-15T04:52:00.974Z,21.20
2023-01-15T04:54:27.532Z,18.05
2023-01-15T04:56:55.094Z,24.98
2023-01-15T04:59:24.715Z,21.75
2023-01-15T05:02:02.995Z,25.20
2023-01-15T05:04:31.587Z,19.98
2023-01-15T05:06:57.995Z,18.92
2023-01-15T05:09:24.398Z,26.15
2023-01-15T05:11:50.846Z,21.63
2023-01-15T05:14:17.251Z,22.00
2023-01-15T05:16:44.336Z,22.20
2023-01-15T05:19:10.853Z,25.35
2023-01-15T05:21:42.165Z,28.40
2023-01-15T05:24:12.951Z,19.40
2023-01-15T05:26:39.452Z,20.95
2023-01-15T05:29:05.915Z,21.90
2023-01-15T05:31:33.731Z,22.25
2023-01-15T05:34:01.056Z,26.13
2023-01-15T05:36:30.189Z,22.23
2023-01-15T05:39:01.362Z,17.48
2023-01-15T05:41:46.621Z,16.38
2023-01-15T05:44:13.699Z,28.73
2023-01-15T05:46:41.654Z,15.70
2023-01-15T05:49:11.401Z,28.88
2023-01-15T05:51:38.610Z,24.40
2023-01-15T05:54:06.348Z,29.63
2023-01-15T05:56:35.928Z,33.50
2023-01-15T05:59:02.513Z,27.20
2023-01-15T06:01:29.030Z,20.48
2023-01-15T06:03:58.788Z,19.35
2023-01-15T06:06:25.404Z,29.10
2023-01-15T06:08:51.909Z,24.33
2023-01-15T06:11:18.683Z,20.38
2023-01-15T06:13:45.120Z,23.30
2023-01-15T06:16:11.766Z,22.65
2023-01-15T06:18:39.301Z,18.52
2023-01-15T06:21:10.808Z,19.00
2023-01-15T06:23:38.571Z,31.85
2023-01-15T06:26:07.816Z,21.35
2023-01-15T06:28:34.307Z,23.58
2023-01-15T06:31:05.165Z,22.73
2023-01-15T06:33:31.729Z,18.80
2023-01-15T06:35:58.131Z,21.48
2023-01-15T06:38:24.534Z,23.38
2023-01-15T06:40:50.927Z,17.13
2023-01-15T06:43:36.370Z,23.08
2023-01-15T06:46:25.667Z,25.13
2023-01-15T06:48:52.197Z,21.13
2023-01-15T06:51:21.001Z,19.98
2023-01-15T06:53:47.991Z,24.38
2023-01-15T06:56:15.273Z,22.25
2023-01-15T06:58:43.881Z,15.38
2023-01-15T07:01:11.813Z,22.80
2023-01-15T07:03:38.327Z,21.67
2023-01-15T07:06:10.646Z,26.05
2023-01-15T07:08:37.079Z,24.42
2023-01-15T07:11:09.027Z,21.60
2023-01-15T07:13:36.130Z,26.75
2023-01-15T07:16:03.955Z,21.13
2023-01-15T07:18:33.199Z,24.77
2023-01-15T07:20:59.806Z,22.38
2023-01-15T07:23:27.228Z,21.42
2023-01-15T07:25:54.083Z,30.40
2023-01-15T07:28:22.260Z,31.92
2023-01-15T07:30:48.727Z,25.02
2023-01-15T07:33:15.306Z,25.10
2023-01-15T07:35:42.133Z,30.98
2023-01-15T07:38:08.541Z,24.58
2023-01-15T07:40:34.946Z,23.85
2023-01-15T07:43:19.998Z,26.40
2023-01-15T07:46:05.028Z,20.10
2023-01-15T07:49:06.660Z,18.15
2023-01-15T07:51:33.100Z,32.63
2023-01-15T07:53:59.479Z,24.63
2023-01-15T07:56:26.077Z,23.58
2023-01-15T07:58:52.460Z,22.10
2023-01-15T08:01:19.198Z,23.23
2023-01-15T08:03:45.655Z,23.08
2023-01-15T08:06:12.062Z,24.60
2023-01-15T08:08:38.503Z,20.52
2023-01-15T08:11:23.577Z,23.08
2023-01-15T08:14:08.321Z,28.08
2023-01-15T08:16:37.621Z,20.42
2023-01-15T08:19:04.253Z,26.47
2023-01-15T08:21:30.772Z,27.67
2023-01-15T08:23:57.191Z,26.95
2023-01-15T08:26:23.627Z,31.70
2023-01-15T08:28:59.508Z,25.50
2023-01-15T08:31:26.436Z,30.30
2023-01-15T08:33:53.102Z,22.15
2023-01-15T08:36:19.540Z,24.38
2023-01-15T08:38:49.165Z,22.15
2023-01-15T08:41:16.073Z,22.27
2023-01-15T08:43:42.609Z,14.18
2023-01-15T08:46:09.854Z,22.80
2023-01-15T08:48:36.288Z,24.27
2023-01-15T08:51:07.047Z,24.27
2023-01-15T08:53:34.015Z,23.33
2023-01-15T08:56:00.604Z,24.73
2023-01-15T08:58:33.231Z,28.50
2023-01-15T09:01:08.189Z,28.70
2023-01-15T09:03:35.522Z,24.73
2023-01-15T09:06:02.869Z,22.30
2023-01-15T09:08:30.064Z,20.65
2023-01-15T09:11:00.900Z,22.02
2023-01-15T09:13:28.545Z,21.45
2023-01-15T09:15:58.748Z,20.27
2023-01-15T09:20:51.498Z,20.58
2023-01-15T09:23:17.969Z,28.10
2023-01-15T09:25:59.873Z,20.67
2023-01-15T09:28:27.649Z,21.80
2023-01-15T09:30:54.300Z,18.75
2023-01-15T09:33:21.090Z,23.60
2023-01-15T09:35:47.879Z,20.95
2023-01-15T09:38:19.330Z,19.58
2023-01-15T09:40:56.601Z,24.45
2023-01-15T09:43:36.197Z,20.08
2023-01-15T09:46:13.753Z,19.65
2023-01-15T09:48:48.372Z,20.35
2023-01-15T09:51:56.834Z,13.38
2023-01-15T09:54:44.807Z,23.00
2023-01-15T09:57:16.478Z,20.17
2023-01-15T09:59:49.022Z,21.75
2023-01-15T10:02:21.637Z,18.30
2023-01-15T10:05:05.249Z,16.73
2023-01-15T10:08:04.470Z,24.98
2023-01-15T10:10:40.555Z,16.92
2023-01-15T10:13:18.833Z,10.80
2023-01-15T10:15:47.202Z,18.95
2023-01-15T10:18:20.322Z,23.98
2023-01-15T10:20:53.101Z,13.18
2023-01-15T10:23:40.048Z,12.25
2023-01-15T10:26:38.680Z,16.30
2023-01-15T10:29:28.411Z,23.90
2023-01-15T10:32:26.837Z,17.65
2023-01-15T10:34:59.042Z,19.30
2023-01-15T10:37:33.266Z,17.42
2023-01-15T10:40:05.562Z,19.15
2023-01-15T10:42:45.588Z,13.13
2023-01-15T10:45:15.146Z,16.38
2023-01-15T10:47:43.706Z,22.77
2023-01-15T10:50:18.653Z,16.73
2023-01-15T10:52:57.450Z,18.85
2023-01-15T10:55:38.396Z,15.20
2023-01-15T10:58:16.768Z,18.85
2023-01-15T11:00:50.673Z,16.35
2023-01-15T11:03:22.362Z,16.42
2023-01-15T11:05:49.768Z,17.50
2023-01-15T11:11:48.300Z,22.52
2023-01-15T11:14:33.099Z,17.27
2023-01-15T11:17:08.842Z,18.50
2023-01-15T11:19:39.666Z,14.60
2023-01-15T11:22:17.910Z,19.75
2023-01-15T11:25:01.264Z,19.88
2023-01-15T11:27:32.854Z,13.77
2023-01-15T11:30:01.425Z,12.70
2023-01-15T11:32:35.046Z,16.15
2023-01-15T11:35:15.252Z,13.48
2023-01-15T11:40:19.520Z,10.60
2023-01-15T11:43:09.077Z,11.20
2023-01-15T11:46:09.122Z,13.60
2023-01-15T11:49:03.728Z,18.60
2023-01-15T11:51:35.535Z,12.60
2023-01-15T11:54:04.990Z,12.65
2023-01-15T11:56:35.158Z,9.75
2023-01-15T12:01:39.325Z,12.00
2023-01-15T12:04:22.151Z,9.63
2023-01-15T12:06:48.968Z,8.18
2023-01-15T12:09:46.112Z,8.52
2023-01-15T12:12:24.323Z,9.00
2023-01-15T12:15:04.033Z,8.05
2023-01-15T12:17:30.897Z,8.55
2023-01-15T12:20:24.527Z,8.52
2023-01-15T12:23:13.094Z,8.45
2023-01-15T12:26:08.800Z,8.52
2023-01-15T12:28:40.548Z,8.25
2023-01-15T12:31:19.570Z,7.68
2023-01-15T12:33:52.575Z,8.68
2023-01-15T12:36:23.927Z,8.43
2023-01-15T12:39:01.041Z,8.50
2023-01-15T12:41:58.725Z,9.35
2023-01-15T12:45:03.461Z,10.60
2023-01-15T12:47:35.873Z,9.15
2023-01-15T12:50:29.707Z,11.55
2023-01-15T12:53:20.846Z,8.60
2023-01-15T12:56:01.782Z,11.10
2023-01-15T12:59:00.737Z,10.85
2023-01-15T13:01:45.703Z,13.75
2023-01-15T13:04:18.428Z,11.63
2023-01-15T13:06:50.366Z,12.43
2023-01-15T13:09:44.315Z,17.35
2023-01-15T13:12:15.155Z,19.30
2023-01-15T13:14:45.510Z,14.50
2023-01-15T13:17:36.511Z,19.90
2023-01-15T13:20:21.332Z,14.45
2023-01-15T13:23:03.019Z,18.80
2023-01-15T13:25:37.956Z,14.43
2023-01-15T13:28:12.755Z,12.88
2023-01-15T13:31:06.552Z,15.75
2023-01-15T13:33:51.978Z,20.10
2023-01-15T13:36:21.330Z,11.13
2023-01-15T13:38:54.284Z,18.13
2023-01-15T13:41:43.292Z,14.38
2023-01-15T13:44:18.814Z,15.52
2023-01-15T13:46:47.793Z,12.98
2023-01-15T13:49:19.936Z,14.18
2023-01-15T13:51:49.262Z,14.48
2023-01-15T13:54:23.833Z,14.33
2023-01-15T13:56:50.422Z,12.45
2023-01-15T13:59:41.579Z,10.25
2023-01-15T14:02:24.773Z,15.98
2023-01-15T14:04:51.607Z,13.50
2023-01-15T14:07:30.954Z,17.48
2023-01-15T14:10:27.976Z,15.83
2023-01-15T14:13:44.602Z,12.10
2023-01-15T14:16:29.132Z,19.00
2023-01-15T14:19:10.502Z,16.00
2023-01-15T14:21:40.783Z,15.52
2023-01-15T14:27:08.192Z,15.97
2023-01-15T14:29:53.309Z,16.02
2023-01-15T14:32:22.836Z,17.15
2023-01-15T14:34:57.877Z,13.60
2023-01-15T14:37:24.303Z,13.82
2023-01-15T14:40:01.755Z,15.98
2023-01-15T14:42:53.408Z,18.33
2023-01-15T14:45:25.776Z,20.00
2023-01-15T14:47:55.199Z,18.40
2023-01-15T14:50:42.235Z,17.98
2023-01-15T14:53:11.755Z,19.25
2023-01-15T14:55:47.204Z,18.00
2023-01-15T14:58:32.040Z,19.73
2023-01-15T15:01:04.580Z,21.40
2023-01-15T15:03:41.416Z,25.33
2023-01-15T15:06:12.148Z,16.92
2023-01-15T15:08:42.214Z,17.30
2023-01-15T15:11:39.192Z,22.05
2023-01-15T15:14:08.843Z,21.95
2023-01-15T15:16:42.704Z,26.15
2023-01-15T15:19:23.103Z,27.45
2023-01-15T15:21:50.778Z,31.83
2023-01-15T15:24:26.481Z,29.75
2023-01-15T15:26:52.957Z,35.25
2023-01-15T15:29:20.574Z,29.63
2023-01-15T15:31:56.879Z,28.77
2023-01-15T15:34:29.122Z,28.58
2023-01-15T15:37:01.190Z,26.50
2023-01-15T15:39:39.803Z,30.10
2023-01-15T15:42:34.111Z,27.60
2023-01-15T15:45:19.019Z,26.85
2023-01-15T15:48:04.153Z,33.72
2023-01-15T15:50:32.890Z,35.10
2023-01-15T15:53:04.257Z,27.05
2023-01-15T15:55:43.986Z,24.92
2023-01-15T15:58:43.557Z,25.40
2023-01-15T16:01:13.122Z,22.40
2023-01-15T16:03:47.742Z,22.95
2023-01-15T16:06:21.162Z,22.67
2023-01-15T16:09:04.797Z,23.90
2023-01-15T16:11:33.583Z,25.15
2023-01-15T16:14:05.709Z,24.75
2023-01-15T16:16:32.876Z,38.95
2023-01-15T16:19:01.478Z,26.52
2023-01-15T16:21:40.231Z,82.50
2023-01-15T16:24:09.236Z,31.70
2023-01-15T16:26:37.822Z,30.50
2023-01-15T16:29:06.581Z,26.38
2023-01-15T16:31:37.819Z,26.80
2023-01-15T16:34:05.478Z,26.52
2023-01-15T16:36:42.102Z,24.85
2023-01-15T16:39:20.940Z,24.30
2023-01-15T16:41:48.388Z,25.17
2023-01-15T16:44:37.827Z,25.92
2023-01-15T16:47:05.776Z,35.47
2023-01-15T16:49:33.955Z,26.98
2023-01-15T16:52:02.321Z,23.35
2023-01-15T16:54:31.797Z,25.23
2023-01-15T16:56:59.099Z,20.20
2023-01-15T16:59:28.509Z,21.33
2023-01-15T17:02:02.853Z,20.80
2023-01-15T17:04:31.589Z,19.33
2023-01-15T17:07:18.724Z,19.00
2023-01-15T17:09:49.534Z,18.75
2023-01-15T17:12:35.933Z,18.05
2023-01-15T17:15:17.742Z,18.98
2023-01-15T17:17:49.096Z,17.63
2023-01-15T17:20:16.888Z,23.30
2023-01-15T17:22:45.873Z,17.60
2023-01-15T17:25:23.633Z,16.83
2023-01-15T17:27:54.575Z,16.45
2023-01-15T17:30:21.302Z,15.82
2023-01-15T17:32:47.893Z,14.75
2023-01-15T17:35:23.610Z,15.23
2023-01-15T17:37:50.342Z,15.13
2023-01-15T17:40:16.999Z,15.02
2023-01-15T17:42:43.592Z,14.57
2023-01-15T17:45:30.394Z,19.05
2023-01-15T17:47:56.919Z,15.63
2023-01-15T17:50:23.538Z,14.48
2023-01-15T17:52:50.745Z,16.23
2023-01-15T17:55:40.610Z,14.48
2023-01-15T17:58:29.338Z,19.77
2023-01-15T18:01:14.711Z,16.88
2023-01-15T18:04:06.234Z,19.40
2023-01-15T18:06:33.967Z,19.50
2023-01-15T18:09:02.908Z,19.63
2023-01-15T18:11:29.612Z,14.82
2023-01-15T18:13:57.024Z,17.58
2023-01-15T18:16:24.105Z,17.70
2023-01-15T18:18:53.784Z,16.73
2023-01-15T18:21:20.673Z,16.40
2023-01-15T18:23:47.313Z,14.88
2023-01-15T18:26:14.165Z,15.05
2023-01-15T18:28:40.602Z,16.38
2023-01-15T18:31:07.348Z,14.57
2023-01-15T18:33:34.141Z,20.85
2023-01-15T18:36:04.442Z,19.23
2023-01-15T18:40:57.178Z,29.30
2023-01-15T18:43:41.877Z,14.88
2023-01-15T18:46:27.259Z,13.20
2023-01-15T18:48:53.804Z,18.92
2023-01-15T18:51:21.015Z,13.88
2023-01-15T18:53:48.605Z,13.35
2023-01-15T18:56:34.975Z,26.33
2023-01-15T18:59:01.353Z,14.15
2023-01-15T19:01:27.824Z,16.02
2023-01-15T19:03:55.858Z,17.15
2023-01-15T19:06:22.241Z,15.70
2023-01-15T19:08:48.846Z,15.35
2023-01-15T19:11:15.358Z,16.63
2023-01-15T19:13:41.771Z,16.83
2023-01-15T19:16:27.419Z,16.63
2023-01-15T19:18:53.908Z,13.45
2023-01-15T19:21:21.556Z,17.85
2023-01-15T19:23:48.050Z,15.38
2023-01-15T19:26:14.843Z,14.18
2023-01-15T19:28:41.520Z,22.85
2023-01-15T19:31:27.945Z,18.55
2023-01-15T19:34:31.101Z,13.23
2023-01-15T19:36:45.787Z,14.32
2023-01-15T19:39:12.302Z,19.92
2023-01-15T19:41:57.756Z,13.70
2023-01-15T19:44:42.895Z,16.75
2023-01-15T19:47:33.478Z,14.13
2023-01-15T19:50:18.711Z,22.05
2023-01-15T19:52:49.445Z,22.83
2023-01-15T19:55:17.668Z,15.18
2023-01-15T19:57:47.745Z,17.23
2023-01-15T20:00:17.882Z,15.32
2023-01-15T20:02:45.786Z,18.17
2023-01-15T20:05:14.340Z,13.65
2023-01-15T20:07:41.712Z,14.88
2023-01-15T20:10:14.518Z,16.08
2023-01-15T20:13:00.349Z,13.45
2023-01-15T20:15:27.398Z,17.52
2023-01-15T20:17:54.255Z,16.50
2023-01-15T20:20:20.726Z,14.05
2023-01-15T20:22:47.279Z,18.95
2023-01-15T20:25:13.965Z,15.70
2023-01-15T20:27:41.257Z,20.83
2023-01-15T20:30:11.601Z,14.93
2023-01-15T20:32:40.287Z,15.70
2023-01-15T20:35:08.803Z,19.00
2023-01-15T20:37:35.282Z,17.13
2023-01-15T20:40:01.754Z,15.60
2023-01-15T20:42:48.312Z,17.17
2023-01-15T20:45:15.239Z,15.65
2023-01-15T20:48:01.823Z,15.27
2023-01-15T20:50:31.040Z,14.32
2023-01-15T20:52:58.650Z,14.60
2023-01-15T20:55:45.657Z,17.67
2023-01-15T20:58:16.255Z,13.43
2023-01-15T21:00:42.681Z,12.98
2023-01-15T21:03:11.302Z,11.18
2023-01-15T21:05:37.996Z,15.73
2023-01-15T21:08:04.776Z,14.70
2023-01-15T21:10:31.181Z,17.65
2023-01-15T21:12:57.589Z,13.52
2023-01-15T21:15:23.976Z,19.58
2023-01-15T21:17:50.425Z,11.45
2023-01-15T21:20:16.917Z,15.88
2023-01-15T21:22:44.320Z,14.30
2023-01-15T21:25:11.211Z,14.85
2023-01-15T21:27:38.089Z,15.50
2023-01-15T21:30:05.977Z,16.63
2023-01-15T21:32:32.634Z,12.10
2023-01-15T21:34:59.035Z,13.07
2023-01-15T21:37:25.465Z,13.88
2023-01-15T21:39:51.843Z,15.60
2023-01-15T21:42:38.930Z,15.82
2023-01-15T21:45:06.696Z,15.38
2023-01-15T21:47:34.057Z,11.52
2023-01-15T21:50:00.503Z,12.93
2023-01-15T21:52:29.287Z,22.08
2023-01-15T21:54:55.779Z,15.00
2023-01-15T21:57:22.392Z,15.02
2023-01-15T21:59:49.146Z,12.75
2023-01-15T22:02:18.999Z,13.73
2023-01-15T22:04:45.568Z,13.30
2023-01-15T22:07:12.031Z,14.70
2023-01-15T22:09:38.751Z,18.65
2023-01-15T22:12:05.882Z,16.75
2023-01-15T22:14:33.326Z,12.23
2023-01-15T22:17:02.420Z,16.33
2023-01-15T22:19:30.745Z,16.05
2023-01-15T22:22:00.222Z,22.83
2023-01-15T22:24:31.421Z,12.27
2023-01-15T22:26:58.722Z,13.68
2023-01-15T22:29:28.020Z,19.10
2023-01-15T22:31:54.775Z,11.67
2023-01-15T22:34:22.204Z,14.13
2023-01-15T22:36:49.868Z,14.02
2023-01-15T22:39:16.337Z,12.13
2023-01-15T22:42:02.385Z,17.08
2023-01-15T22:44:28.865Z,13.38
2023-01-15T22:46:55.545Z,13.02
2023-01-15T22:49:22.400Z,14.57
2023-01-15T22:51:49.679Z,13.25
2023-01-15T22:54:18.671Z,14.80
2023-01-15T22:56:45.707Z,13.77
2023-01-15T22:59:13.631Z,13.07
2023-01-15T23:01:40.733Z,14.05
2023-01-15T23:04:17.760Z,12.18
2023-01-15T23:06:44.890Z,11.27
2023-01-15T23:09:12.421Z,12.45
2023-01-15T23:11:39.183Z,11.50
2023-01-15T23:14:07.324Z,11.85
2023-01-15T23:16:34.474Z,11.90
2023-01-15T23:19:01.405Z,12.93
2023-01-15T23:21:28.787Z,11.63
2023-01-15T23:24:00.310Z,10.82
2023-01-15T23:26:29.908Z,12.73
2023-01-15T23:28:56.871Z,12.77
2023-01-15T23:31:24.306Z,15.18
2023-01-15T23:33:51.001Z,11.82
2023-01-15T23:36:17.817Z,11.52
2023-01-15T23:38:46.598Z,11.90
2023-01-15T23:41:19.071Z,13.45
2023-01-15T23:44:04.841Z,14.85
2023-01-15T23:46:37.434Z,12.10
2023-01-15T23:49:06.860Z,11.52
2023-01-15T23:51:34.341Z,11.90
2023-01-15T23:54:01.663Z,13.18
2023-01-15T23:56:30.428Z,15.93
2023-01-15T23:58:57.027Z,13.20
